Time;durP1;ratioP1;P1;durP2;ratioP2;P2;SDS_P1;SDS_P2;PMS_P1;PMS_P2;Temp;Humidity;BMP_temperature;BMP_pressure;BME280_temperature;BME280_humidity;BME280_pressure;Samples;Min_cycle;Max_cycle;Signal;HPM_P1;HPM_P2
2021/03/10 00:01:45;;;;;;;13.55;8.20;;;;;;;1.67;41.03;97104.14;1674737;85;21173;-79
2021/03/10 00:04:13;;;;;;;18.15;7.85;;;;;;;1.58;41.17;97114.94;1683340;84;21154;-80
2021/03/10 00:06:40;;;;;;;13.60;7.12;;;;;;;1.50;41.29;97107.94;1702764;84;21170;-80
2021/03/10 00:09:07;;;;;;;13.15;7.85;;;;;;;1.44;41.38;97114.70;1655790;84;21327;-80
2021/03/10 00:11:37;;;;;;;17.05;8.13;;;;;;;1.37;41.51;97107.20;1686736;85;21278;-80
2021/03/10 00:14:05;;;;;;;14.28;6.90;;;;;;;1.28;41.40;97109.33;1674927;85;21179;-80
2021/03/10 00:16:32;;;;;;;15.68;7.95;;;;;;;1.19;41.43;97107.51;1644826;85;21542;-80
2021/03/10 00:19:00;;;;;;;14.00;7.58;;;;;;;1.15;41.45;97107.27;1644279;87;21195;-82
2021/03/10 00:21:28;;;;;;;14.43;7.97;;;;;;;1.07;41.54;97108.88;1709187;84;21134;-81
2021/03/10 00:23:56;;;;;;;15.23;7.40;;;;;;;1.00;41.62;97105.30;1700353;84;21357;-79
2021/03/10 00:26:24;;;;;;;13.50;7.58;;;;;;;0.93;41.88;97105.56;1721865;82;21164;-80
2021/03/10 00:28:51;;;;;;;17.57;9.13;;;;;;;0.87;42.09;97110.15;1701152;83;21619;-80
2021/03/10 00:31:19;;;;;;;15.18;7.08;;;;;;;0.78;42.18;97104.90;1729289;82;21332;-80
2021/03/10 00:33:48;;;;;;;15.35;7.97;;;;;;;0.69;42.30;97103.51;1750634;82;21342;-79
2021/03/10 00:36:16;;;;;;;18.12;7.83;;;;;;;0.62;42.84;97099.02;1748592;82;21456;-79
2021/03/10 00:38:44;;;;;;;16.15;7.55;;;;;;;0.53;42.61;97104.57;1713935;84;21153;-79
2021/03/10 00:41:11;;;;;;;20.08;8.98;;;;;;;0.49;42.86;97106.05;1707540;83;21109;-80
2021/03/10 00:43:39;;;;;;;16.32;9.03;;;;;;;0.45;42.96;97094.95;1723559;83;21156;-79
2021/03/10 00:46:07;;;;;;;15.47;7.47;;;;;;;0.40;43.08;97087.83;1673397;85;21142;-80
2021/03/10 00:48:35;;;;;;;15.70;7.78;;;;;;;0.33;43.12;97091.10;1673547;86;21186;-80
2021/03/10 00:51:05;;;;;;;17.07;8.90;;;;;;;0.29;43.22;97089.09;1673790;85;21185;-80
2021/03/10 00:53:33;;;;;;;18.35;7.97;;;;;;;0.28;43.37;97087.83;1675935;85;21573;-78
2021/03/10 00:56:01;;;;;;;17.03;7.77;;;;;;;0.21;43.31;97092.44;1684670;85;21319;-79
2021/03/10 00:58:29;;;;;;;16.25;8.40;;;;;;;0.17;43.45;97090.02;1670568;84;21286;-79
2021/03/10 01:00:58;;;;;;;18.12;8.45;;;;;;;0.13;43.61;97081.52;1663060;85;21299;-81
2021/03/10 01:03:26;;;;;;;13.47;7.57;;;;;;;0.11;43.61;97085.91;1650178;86;21196;-80
2021/03/10 01:05:55;;;;;;;15.25;8.18;;;;;;;0.07;43.58;97082.59;1687476;85;21152;-80
2021/03/10 01:08:23;;;;;;;18.57;8.60;;;;;;;0.04;43.67;97076.22;1717765;82;21244;-78
2021/03/10 01:10:51;;;;;;;15.98;7.20;;;;;;;0.05;43.71;97080.94;1680554;84;21145;-79
2021/03/10 01:13:21;;;;;;;17.30;7.45;;;;;;;0.03;43.81;97072.41;1715218;83;21150;-79
2021/03/10 01:15:49;;;;;;;16.45;8.35;;;;;;;0.01;43.85;97071.61;1710850;83;21201;-80
2021/03/10 01:18:16;;;;;;;14.73;8.38;;;;;;;0.01;43.95;97076.33;1677234;85;21314;-80
2021/03/10 01:20:45;;;;;;;14.78;7.00;;;;;;;0.01;43.96;97075.03;1672610;85;21291;-79
2021/03/10 01:23:12;;;;;;;14.25;7.72;;;;;;;0.01;43.89;97069.84;1668614;86;21324;-81
2021/03/10 01:25:40;;;;;;;14.68;8.78;;;;;;;0.02;43.99;97073.30;1690127;84;21301;-80
2021/03/10 01:28:09;;;;;;;15.72;7.25;;;;;;;0.00;44.05;97074.67;1721984;83;21144;-80
2021/03/10 01:30:37;;;;;;;12.80;6.50;;;;;;;-0.05;44.01;97067.07;1738220;82;21272;-80
2021/03/10 01:33:05;;;;;;;15.60;7.80;;;;;;;-0.01;44.04;97066.03;1722531;82;21239;-80
2021/03/10 01:35:33;;;;;;;14.13;6.80;;;;;;;-0.02;44.05;97068.23;1731128;82;21169;-80
2021/03/10 01:38:04;;;;;;;11.27;5.70;;;;;;;-0.05;44.00;97068.80;1711245;82;21272;-79
2021/03/10 01:40:33;;;;;;;14.73;8.03;;;;;;;-0.05;44.03;97065.77;1693359;82;21167;-80
2021/03/10 01:43:03;;;;;;;15.13;7.58;;;;;;;-0.01;44.06;97062.61;1723890;82;21142;-79
2021/03/10 01:45:32;;;;;;;14.13;6.72;;;;;;;-0.01;43.91;97066.03;1751271;82;21142;-79
2021/03/10 01:48:01;;;;;;;12.83;6.70;;;;;;;-0.05;44.00;97064.48;1751622;82;21146;-80
2021/03/10 01:50:29;;;;;;;12.63;7.20;;;;;;;-0.02;44.05;97067.40;1716496;82;21294;-79
2021/03/10 01:52:58;;;;;;;15.37;6.27;;;;;;;-0.06;44.01;97062.78;1697262;83;21594;-80
2021/03/10 01:55:28;;;;;;;10.28;6.37;;;;;;;-0.07;44.12;97066.70;1673375;85;21969;-77
2021/03/10 01:57:56;;;;;;;14.70;7.10;;;;;;;-0.09;44.32;97067.24;1676608;84;21161;-80
2021/03/10 02:00:27;;;;;;;13.03;7.00;;;;;;;-0.07;44.46;97066.28;1668314;85;21145;-78
2021/03/10 02:02:55;;;;;;;12.57;6.10;;;;;;;-0.08;44.50;97067.61;1689600;85;21295;-80
2021/03/10 02:05:24;;;;;;;12.85;6.58;;;;;;;-0.09;44.63;97068.08;1682123;84;21255;-81
2021/03/10 02:08:30;;;;;;;12.83;7.53;;;;;;;-0.12;44.55;97067.34;1665070;85;21290;-81
2021/03/10 02:11:14;;;;;;;13.90;6.70;;;;;;;-0.16;44.69;97065.33;1661231;85;21267;-81
2021/03/10 02:14:22;;;;;;;12.10;6.17;;;;;;;-0.23;44.74;97067.30;1687005;85;21105;-82
2021/03/10 02:16:58;;;;;;;13.93;7.33;;;;;;;-0.25;44.81;97068.27;1660422;86;21133;-79
2021/03/10 02:19:47;;;;;;;;;;;;;;;-0.25;44.73;97062.62;1664445;86;21180;-80
2021/03/10 02:22:43;;;;;;;15.83;6.83;;;;;;;-0.30;44.99;97061.95;1617746;88;20163;-81
2021/03/10 02:25:35;;;;;;;19.00;9.00;;;;;;;-0.33;45.05;97060.77;1627911;88;21177;-79
2021/03/10 02:28:04;;;;;;;15.83;7.50;;;;;;;-0.36;45.03;97063.03;1715829;84;21146;-79
2021/03/10 02:30:40;;;;;;;20.57;7.40;;;;;;;-0.39;45.16;97062.30;1694634;84;21145;-81
2021/03/10 02:33:18;;;;;;;17.52;8.18;;;;;;;-0.44;45.61;97057.29;1700550;84;21157;-79
2021/03/10 02:35:51;;;;;;;16.13;7.90;;;;;;;-0.48;45.57;97054.41;1701747;84;21159;-79
2021/03/10 02:38:22;;;;;;;17.53;8.57;;;;;;;-0.51;46.59;97052.78;1690511;84;21158;-79
2021/03/10 02:40:53;;;;;;;17.37;8.47;;;;;;;-0.51;45.98;97052.78;1650884;86;21143;-79
2021/03/10 02:43:23;;;;;;;16.73;8.03;;;;;;;-0.53;45.98;97052.45;1660459;86;21228;-79
2021/03/10 02:45:54;;;;;;;13.50;7.67;;;;;;;-0.59;46.21;97052.64;1636402;86;21170;-81
2021/03/10 02:48:23;;;;;;;22.23;9.50;;;;;;;-0.63;46.40;97051.91;1666738;84;21276;-79
2021/03/10 02:50:55;;;;;;;17.93;7.53;;;;;;;-0.60;46.46;97056.16;1689547;84;21294;-79
2021/03/10 02:53:25;;;;;;;14.50;7.80;;;;;;;-0.58;46.68;97048.73;1654247;86;21186;-79
2021/03/10 02:55:54;;;;;;;14.63;9.03;;;;;;;-0.57;46.61;97052.15;1681957;84;21255;-77
2021/03/10 02:58:24;;;;;;;17.67;8.03;;;;;;;-0.58;46.67;97047.87;1686460;85;21234;-79
2021/03/10 03:00:52;;;;;;;16.80;8.47;;;;;;;-0.56;46.76;97044.78;1679819;84;21138;-79
2021/03/10 03:03:20;;;;;;;15.70;9.00;;;;;;;-0.54;46.83;97042.52;1649636;87;21186;-80
2021/03/10 03:05:48;;;;;;;17.47;9.23;;;;;;;-0.52;46.76;97041.19;1700387;83;21291;-77
2021/03/10 03:08:17;;;;;;;19.97;8.97;;;;;;;-0.51;46.87;97046.77;1663977;84;21548;-78
2021/03/10 03:10:45;;;;;;;18.43;9.13;;;;;;;-0.53;46.93;97038.20;1677185;85;21191;-79
2021/03/10 03:13:16;;;;;;;18.87;9.57;;;;;;;-0.55;47.22;97042.59;1728148;83;21652;-80
2021/03/10 03:15:50;;;;;;;21.33;8.87;;;;;;;-0.54;46.95;97041.69;1727096;83;21290;-80
2021/03/10 03:18:20;;;;;;;18.70;8.90;;;;;;;-0.56;47.15;97043.48;1698804;83;21152;-80
2021/03/10 03:20:50;;;;;;;21.87;10.37;;;;;;;-0.56;47.17;97048.23;1699034;83;21140;-79
2021/03/10 03:23:25;;;;;;;18.73;8.80;;;;;;;-0.56;47.29;97044.34;1672805;84;21205;-79
2021/03/10 03:25:54;;;;;;;18.77;9.23;;;;;;;-0.58;47.50;97055.20;1696354;84;21306;-79
2021/03/10 03:28:27;;;;;;;26.00;12.30;;;;;;;-0.57;47.68;97056.03;1699333;84;21303;-78
2021/03/10 03:30:56;;;;;;;20.90;9.87;;;;;;;-0.57;47.72;97049.56;1698926;84;21193;-77
2021/03/10 03:33:29;;;;;;;20.87;9.03;;;;;;;-0.59;47.65;97043.16;1677994;84;21135;-79
2021/03/10 03:35:59;;;;;;;19.55;9.63;;;;;;;-0.60;47.37;97050.98;1692323;84;21329;-79
2021/03/10 03:38:29;;;;;;;16.47;9.17;;;;;;;-0.64;47.58;97048.93;1715474;83;21645;-78
2021/03/10 03:40:57;;;;;;;16.23;8.07;;;;;;;-0.65;47.53;97048.56;1693591;84;21158;-78
2021/03/10 03:43:27;;;;;;;17.30;8.40;;;;;;;-0.68;47.75;97051.25;1697831;84;21142;-81
2021/03/10 03:45:55;;;;;;;19.23;8.00;;;;;;;-0.72;47.51;97040.59;1677685;85;21169;-79
2021/03/10 03:48:23;;;;;;;16.33;7.87;;;;;;;-0.72;47.50;97042.75;1701625;84;21142;-79
2021/03/10 03:50:51;;;;;;;14.23;7.20;;;;;;;-0.74;47.46;97048.89;1659977;86;21240;-79
2021/03/10 03:53:20;;;;;;;15.10;7.77;;;;;;;-0.80;47.46;97053.38;1665257;86;21161;-79
2021/03/10 03:55:48;;;;;;;17.73;9.53;;;;;;;-0.81;47.40;97047.80;1655885;86;21181;-80
2021/03/10 03:58:16;;;;;;;15.10;7.47;;;;;;;-0.85;47.75;97047.95;1667587;86;21288;-81
2021/03/10 04:00:43;;;;;;;14.90;8.13;;;;;;;-0.86;47.75;97056.19;1727534;82;21241;-76
2021/03/10 04:03:11;;;;;;;16.90;9.00;;;;;;;-0.86;47.87;97054.03;1688848;84;21551;-80
2021/03/10 04:05:39;;;;;;;22.57;9.13;;;;;;;-0.85;47.87;97062.19;1688603;84;21125;-78
2021/03/10 04:08:09;;;;;;;16.87;7.97;;;;;;;-0.90;47.96;97058.94;1697068;83;21126;-81
2021/03/10 04:10:44;;;;;;;16.60;8.63;;;;;;;-0.95;48.26;97057.80;1713328;83;21167;-79
2021/03/10 04:13:18;;;;;;;19.33;9.50;;;;;;;-0.95;48.61;97052.16;1690566;85;21185;-79
2021/03/10 04:15:45;;;;;;;16.43;8.30;;;;;;;-0.93;48.44;97051.27;1699442;82;21581;-79
2021/03/10 04:18:13;;;;;;;31.03;10.90;;;;;;;-1.00;48.47;97043.73;1731844;82;21133;-79
2021/03/10 04:20:41;;;;;;;25.23;9.40;;;;;;;-1.04;48.78;97051.19;1731231;82;21279;-81
2021/03/10 04:23:09;;;;;;;17.20;8.40;;;;;;;-1.08;49.05;97050.91;1648894;86;21125;-79
2021/03/10 04:25:37;;;;;;;16.60;8.20;;;;;;;-1.10;48.86;97053.53;1738787;82;21588;-79
2021/03/10 04:28:05;;;;;;;17.27;8.17;;;;;;;-1.13;49.30;97050.20;1717635;82;21148;-80
2021/03/10 04:30:33;;;;;;;18.10;9.47;;;;;;;-1.16;49.30;97058.92;1694274;82;21169;-79
2021/03/10 04:33:01;;;;;;;27.47;9.30;;;;;;;-1.16;50.53;97054.22;1710103;82;21109;-79
2021/03/10 04:35:28;;;;;;;17.30;8.77;;;;;;;-1.15;50.68;97054.16;1732323;82;21576;-78
2021/03/10 04:37:56;;;;;;;19.60;9.67;;;;;;;-1.12;50.21;97050.18;1736143;82;21307;-79
2021/03/10 04:40:24;;;;;;;22.73;9.33;;;;;;;-1.09;49.86;97049.22;1691627;82;21156;-80
2021/03/10 04:42:52;;;;;;;18.80;8.73;;;;;;;-1.06;49.99;97052.14;1682958;84;21737;-80
2021/03/10 04:45:20;;;;;;;19.17;9.33;;;;;;;-1.05;50.05;97058.55;1720925;83;21129;-79
2021/03/10 04:47:49;;;;;;;20.37;10.17;;;;;;;-1.07;49.91;97053.90;1704067;82;21121;-79
2021/03/10 04:50:28;;;;;;;17.40;9.10;;;;;;;-1.07;50.18;97047.86;1717527;82;21171;-79
2021/03/10 04:52:56;;;;;;;21.00;10.63;;;;;;;-1.07;50.19;97058.22;1735972;82;21283;-79
2021/03/10 04:55:24;;;;;;;17.83;9.50;;;;;;;-1.11;50.04;97048.42;1719428;82;21146;-79
2021/03/10 04:57:52;;;;;;;19.90;9.63;;;;;;;-1.13;50.35;97048.48;1728312;82;21264;-80
2021/03/10 05:00:21;;;;;;;16.37;8.57;;;;;;;-1.21;50.46;97049.20;1733702;82;21766;-81
2021/03/10 05:02:51;;;;;;;25.23;10.77;;;;;;;-1.21;50.57;97050.92;1727858;83;21163;-78
2021/03/10 05:05:19;;;;;;;18.07;9.17;;;;;;;-1.22;50.66;97056.98;1737523;82;21154;-79
2021/03/10 05:07:48;;;;;;;21.47;10.20;;;;;;;-1.23;50.76;97057.45;1733574;82;21167;-78
2021/03/10 05:10:17;;;;;;;21.27;11.43;;;;;;;-1.19;50.93;97060.31;1727374;83;21208;-80
2021/03/10 05:12:45;;;;;;;20.43;9.87;;;;;;;-1.14;51.09;97065.33;1713091;83;21136;-80
2021/03/10 05:15:13;;;;;;;21.43;10.40;;;;;;;-1.12;50.88;97064.41;1736366;82;21122;-81
2021/03/10 05:17:41;;;;;;;22.27;11.17;;;;;;;-1.08;51.53;97070.75;1731746;82;21151;-79
2021/03/10 05:20:11;;;;;;;25.80;10.70;;;;;;;-1.01;51.94;97065.75;1704492;83;21187;-78
2021/03/10 05:22:40;;;;;;;22.27;10.07;;;;;;;-0.95;51.73;97070.28;1693645;84;21157;-80
2021/03/10 05:25:10;;;;;;;27.97;12.73;;;;;;;-0.88;51.28;97071.38;1732899;82;21201;-78
2021/03/10 05:27:39;;;;;;;20.20;10.90;;;;;;;-0.79;51.20;97065.88;1745714;82;21573;-81
2021/03/10 05:30:09;;;;;;;23.80;10.53;;;;;;;-0.71;51.01;97067.75;1738671;82;21191;-80
2021/03/10 05:32:38;;;;;;;25.40;11.37;;;;;;;-0.61;50.92;97073.89;1714453;83;21181;-79
2021/03/10 05:35:08;;;;;;;23.93;11.63;;;;;;;-0.53;50.68;97074.45;1702956;83;21187;-80
2021/03/10 05:37:39;;;;;;;25.20;9.33;;;;;;;-0.45;50.67;97077.61;1727909;83;21155;-82
2021/03/10 05:40:08;;;;;;;24.43;10.33;;;;;;;-0.40;50.56;97070.50;1727271;83;21151;-79
2021/03/10 05:42:42;;;;;;;26.23;9.87;;;;;;;-0.37;50.38;97071.70;1698110;85;21176;-78
2021/03/10 05:45:13;;;;;;;20.27;8.57;;;;;;;-0.37;50.05;97070.41;1663374;86;21190;-79
2021/03/10 05:47:40;;;;;;;20.52;9.83;;;;;;;-0.35;50.41;97072.92;1635413;88;21177;-79
2021/03/10 05:50:10;;;;;;;27.10;12.30;;;;;;;-0.28;50.23;97073.55;1663790;86;21339;-80
2021/03/10 05:52:42;;;;;;;32.95;13.85;;;;;;;-0.22;50.08;97074.17;1671973;85;21153;-80
2021/03/10 05:55:11;;;;;;;33.00;11.93;;;;;;;-0.16;50.08;97081.70;1677671;85;21199;-80
2021/03/10 05:57:42;;;;;;;38.57;13.57;;;;;;;-0.10;50.07;97087.58;1720102;83;21278;-80
2021/03/10 06:00:12;;;;;;;32.80;14.20;;;;;;;-0.05;50.74;97082.62;1719969;83;21633;-80
2021/03/10 06:02:40;;;;;;;33.20;13.23;;;;;;;0.01;50.42;97088.45;1699879;83;21616;-80
2021/03/10 06:05:25;;;;;;;31.77;19.37;;;;;;;0.05;49.96;97096.06;1719860;83;21278;-79
2021/03/10 06:08:03;;;;;;;42.53;19.07;;;;;;;0.14;49.89;97102.19;1720000;83;21164;-80
2021/03/10 06:10:41;;;;;;;35.63;15.03;;;;;;;0.25;49.80;97106.95;1706808;83;21154;-80
2021/03/10 06:13:30;;;;;;;39.88;14.03;;;;;;;0.35;49.63;97098.81;1657471;86;21253;-80
2021/03/10 06:16:00;;;;;;;27.83;14.93;;;;;;;0.41;49.54;97097.30;1692247;82;21576;-80
2021/03/10 06:18:35;;;;;;;32.55;14.90;;;;;;;0.50;49.45;97101.26;1692010;83;21263;-79
2021/03/10 06:21:16;;;;;;;33.67;14.73;;;;;;;0.59;49.28;97105.64;1691900;82;21145;-79
2021/03/10 06:24:04;;;;;;;32.80;14.80;;;;;;;0.67;49.07;97106.61;1691349;85;21309;-81
2021/03/10 06:26:35;;;;;;;29.57;14.23;;;;;;;0.76;48.74;97111.89;1717587;82;21712;-81
2021/03/10 06:29:07;;;;;;;24.03;12.97;;;;;;;0.80;48.42;97113.44;1719899;83;21263;-80
2021/03/10 06:31:36;;;;;;;24.37;12.30;;;;;;;0.91;48.24;97113.86;1718616;83;21168;-81
2021/03/10 06:34:16;;;;;;;31.05;13.88;;;;;;;1.05;48.17;97112.45;1720140;83;21148;-80
2021/03/10 06:36:48;;;;;;;28.73;13.95;;;;;;;1.25;47.95;97116.33;1690103;83;21258;-80
2021/03/10 06:39:27;;;;;;;29.12;14.73;;;;;;;1.47;47.39;97124.98;1690929;85;21180;-80
2021/03/10 06:41:57;;;;;;;30.20;15.83;;;;;;;1.65;47.16;97122.02;1690229;84;21299;-79
2021/03/10 06:44:31;;;;;;;38.10;17.37;;;;;;;1.77;46.90;97124.52;1689684;83;21302;-81
2021/03/10 06:47:04;;;;;;;35.85;15.40;;;;;;;1.90;46.67;97123.08;1718005;83;21176;-79
2021/03/10 06:49:35;;;;;;;35.03;16.57;;;;;;;2.01;46.08;97115.64;1720849;83;21152;-81
2021/03/10 06:52:08;;;;;;;33.75;15.80;;;;;;;2.11;45.98;97121.25;1720435;83;21176;-81
2021/03/10 06:54:36;;;;;;;30.10;15.00;;;;;;;2.20;45.89;97122.60;1722247;83;21140;-81
2021/03/10 06:57:12;;;;;;;36.85;14.03;;;;;;;2.24;45.49;97126.73;1728137;83;21183;-80
2021/03/10 06:59:48;;;;;;;39.83;15.20;;;;;;;2.33;44.86;97128.91;1727499;83;21148;-81
2021/03/10 07:02:30;;;;;;;21.82;11.43;;;;;;;2.43;45.16;97133.23;1728755;83;21179;-80
2021/03/10 07:05:01;;;;;;;25.88;15.60;;;;;;;2.55;44.89;97126.61;1727518;83;21572;-82
2021/03/10 07:07:30;;;;;;;22.42;10.75;;;;;;;2.67;44.19;97127.77;1728850;83;21160;-81
2021/03/10 07:10:01;;;;;;;22.50;11.93;;;;;;;2.78;44.34;97133.78;1724482;83;21194;-81
2021/03/10 07:12:29;;;;;;;19.75;11.80;;;;;;;2.91;43.98;97134.86;1728024;83;21168;-81
2021/03/10 07:15:01;;;;;;;22.00;12.13;;;;;;;3.03;43.64;97140.39;1719650;83;21183;-81
2021/03/10 07:17:29;;;;;;;27.75;12.70;;;;;;;3.09;43.20;97132.27;1715992;83;21251;-81
2021/03/10 07:19:58;;;;;;;19.82;11.93;;;;;;;3.20;43.10;97133.88;1727988;83;21124;-81
2021/03/10 07:22:55;;;;;;;29.12;13.85;;;;;;;3.31;42.95;97127.30;1729093;83;21184;-82
2021/03/10 07:25:38;;;;;;;19.73;11.03;;;;;;;3.58;42.90;97132.84;1821314;79;24874;-81
2021/03/10 07:28:16;;;;;;;18.50;11.00;;;;;;;3.55;42.90;97135.16;1798191;80;21160;-81
2021/03/10 07:30:51;;;;;;;19.02;10.35;;;;;;;3.71;42.90;97132.61;1796271;78;21143;-81
2021/03/10 07:33:23;;;;;;;17.90;10.65;;;;;;;3.87;42.12;97137.88;1797931;80;21150;-79
2021/03/10 07:35:56;;;;;;;;;;;;;;;3.96;41.92;97132.61;1801161;80;21325;-80
2021/03/10 07:38:35;;;;;;;20.48;9.78;;;;;;;4.06;39.83;97139.50;1799990;78;20139;-81
2021/03/10 07:41:08;;;;;;;24.47;10.40;;;;;;;4.09;41.36;97134.10;1830650;78;21127;-81
2021/03/10 07:43:48;;;;;;;17.52;10.18;;;;;;;4.19;41.45;97135.30;1830991;78;21155;-82
2021/03/10 07:46:26;;;;;;;20.00;10.53;;;;;;;4.26;41.48;97138.42;1830655;78;21147;-81
2021/03/10 07:48:56;;;;;;;18.25;9.50;;;;;;;4.43;40.62;97137.96;1830519;78;21100;-81
2021/03/10 07:51:34;;;;;;;19.75;9.78;;;;;;;4.63;40.54;97139.02;1830152;78;21096;-76
2021/03/10 07:54:17;;;;;;;22.90;11.08;;;;;;;4.75;40.81;97134.04;1806125;78;21153;-77
2021/03/10 07:56:45;;;;;;;23.02;11.22;;;;;;;4.84;40.08;97141.36;1792018;80;21181;-78
2021/03/10 07:59:19;;;;;;;25.17;12.18;;;;;;;5.02;39.69;97139.94;1797453;80;21157;-77
2021/03/10 08:01:47;;;;;;;17.48;10.98;;;;;;;5.22;39.13;97142.25;1797356;78;21173;-77
2021/03/10 08:04:18;;;;;;;16.95;10.28;;;;;;;5.38;40.02;97138.73;1806393;78;21103;-77
2021/03/10 08:06:49;;;;;;;19.87;10.45;;;;;;;5.53;39.51;97139.61;1786384;80;21143;-76
2021/03/10 08:09:20;;;;;;;23.52;11.70;;;;;;;5.70;38.63;97134.21;1795924;80;21136;-77
2021/03/10 08:12:10;;;;;;;26.10;11.53;;;;;;;5.87;38.32;97137.13;1825092;78;21135;-79
2021/03/10 08:14:45;;;;;;;16.52;9.58;;;;;;;6.06;38.46;97129.49;1797336;78;21127;-78
2021/03/10 08:17:25;;;;;;;16.05;9.08;;;;;;;6.08;37.10;97123.22;1824281;78;21100;-77
2021/03/10 08:19:57;;;;;;;16.70;8.45;;;;;;;5.98;38.10;97127.79;1826910;78;21309;-77
2021/03/10 08:22:29;;;;;;;13.30;9.38;;;;;;;6.21;37.46;97123.30;1804500;78;21143;-79
2021/03/10 08:25:03;;;;;;;19.17;10.55;;;;;;;6.36;37.53;97112.80;1824067;78;21273;-79
2021/03/10 08:27:41;;;;;;;17.80;9.73;;;;;;;6.62;36.70;97119.48;1797662;79;21140;-77
2021/03/10 08:30:22;;;;;;;20.12;9.80;;;;;;;6.93;37.38;97109.63;1800827;78;21739;-77
2021/03/10 08:33:10;;;;;;;16.87;9.53;;;;;;;7.11;36.31;97109.73;1825993;78;21259;-77
2021/03/10 08:35:47;;;;;;;17.20;7.85;;;;;;;7.15;35.54;97109.91;1786692;78;21225;-75
2021/03/10 08:38:24;;;;;;;13.55;8.58;;;;;;;7.27;36.09;97106.94;1773823;80;21131;-78
2021/03/10 08:41:03;;;;;;;16.48;7.85;;;;;;;7.24;34.56;97104.51;1771604;80;21143;-74
2021/03/10 08:43:39;;;;;;;18.42;7.62;;;;;;;7.32;36.15;97097.00;1753036;80;21762;-78
2021/03/10 08:46:08;;;;;;;6.65;4.20;;;;;;;7.41;35.23;97102.56;1774656;80;21221;-78
2021/03/10 08:48:37;;;;;;;11.20;6.50;;;;;;;7.49;35.13;97104.19;1781838;80;21145;-78
2021/03/10 08:51:16;;;;;;;15.28;6.65;;;;;;;7.33;34.15;97109.14;1636159;87;21337;-75
2021/03/10 08:53:51;;;;;;;11.63;7.15;;;;;;;7.14;34.08;97095.60;1657668;87;21345;-75
2021/03/10 09:08:28;;;;;;;21.73;7.03;;;;;;;7.52;33.05;97094.78;1771909;79;25358;-77
2021/03/10 09:10:59;;;;;;;7.55;4.17;;;;;;;7.45;34.11;97097.00;1744969;82;21088;-77
2021/03/10 09:13:44;;;;;;;11.93;5.70;;;;;;;7.22;33.31;97098.55;1693844;83;21152;-77
2021/03/10 09:16:14;;;;;;;12.60;4.75;;;;;;;6.73;32.14;97094.73;1726855;82;21696;-77
2021/03/10 09:18:59;;;;;;;6.92;3.83;;;;;;;6.05;31.16;97095.09;1723589;83;21600;-77
2021/03/10 09:21:41;;;;;;;9.73;5.20;;;;;;;5.40;31.17;97100.28;1729158;82;21690;-77
2021/03/10 09:24:16;;;;;;;7.87;5.33;;;;;;;4.83;32.64;97100.02;1724122;83;21258;-78
2021/03/10 09:26:47;;;;;;;9.28;6.20;;;;;;;4.79;33.60;97103.75;1726235;83;21161;-78
2021/03/10 09:29:17;;;;;;;8.55;4.87;;;;;;;4.79;33.78;97098.53;1742789;82;21549;-77
2021/03/10 09:31:57;;;;;;;12.00;5.95;;;;;;;4.66;33.52;97103.61;1728927;82;21179;-77
2021/03/10 09:34:27;;;;;;;14.85;5.85;;;;;;;4.42;33.31;97096.67;1723712;83;21168;-76
2021/03/10 09:37:01;;;;;;;13.25;6.12;;;;;;;4.37;34.05;97091.71;1609738;88;21254;-77
2021/03/10 09:39:37;;;;;;;8.63;4.47;;;;;;;4.51;34.06;97093.55;1610887;88;21653;-77
2021/03/10 09:42:26;;;;;;;11.40;6.08;;;;;;;4.76;33.61;97099.17;1824361;77;24633;-76
2021/03/10 09:44:56;;;;;;;11.95;3.90;;;;;;;4.75;34.07;97094.87;1796292;80;21143;-76
2021/03/10 09:47:26;;;;;;;10.72;6.12;;;;;;;4.98;33.15;97101.39;1795368;78;21137;-78
2021/03/10 09:49:59;;;;;;;8.65;4.37;;;;;;;4.74;33.14;97087.96;1795953;78;21145;-77
2021/03/10 09:52:39;;;;;;;8.73;5.30;;;;;;;4.72;32.97;97098.95;1809899;78;21110;-76
2021/03/10 09:55:17;;;;;;;9.03;5.47;;;;;;;4.49;32.82;97087.57;1795565;80;21582;-76
2021/03/10 09:58:06;;;;;;;9.40;5.53;;;;;;;4.68;34.03;97090.01;1795455;80;21141;-77
2021/03/10 10:00:37;;;;;;;12.93;5.60;;;;;;;4.87;33.88;97092.88;1820047;78;21092;-76
2021/03/10 10:03:11;;;;;;;8.00;5.25;;;;;;;5.14;33.78;97087.80;1842383;78;21297;-76
2021/03/10 10:05:41;;;;;;;8.55;5.72;;;;;;;5.37;34.00;97087.38;1842746;77;21155;-76
2021/03/10 10:08:11;;;;;;;9.93;5.60;;;;;;;5.61;33.64;97091.13;1815824;78;21278;-75
2021/03/10 10:10:42;;;;;;;11.38;5.53;;;;;;;5.83;33.88;97090.31;1815396;78;21364;-76
2021/03/10 10:13:10;;;;;;;7.83;4.17;;;;;;;5.88;32.61;97086.48;1828042;78;21279;-75
2021/03/10 10:15:40;;;;;;;8.88;5.83;;;;;;;5.89;32.44;97085.52;1827423;78;21173;-76
2021/03/10 10:18:10;;;;;;;9.13;4.37;;;;;;;5.68;32.80;97085.55;1802683;78;21622;-75
2021/03/10 10:20:40;;;;;;;7.92;4.40;;;;;;;5.49;32.47;97090.58;1801995;78;21149;-75
2021/03/10 10:23:09;;;;;;;6.10;3.77;;;;;;;5.36;31.28;97083.94;1827095;78;21322;-75
2021/03/10 10:25:41;;;;;;;5.33;3.67;;;;;;;5.51;33.18;97078.71;1826977;78;21153;-78
2021/03/10 10:28:10;;;;;;;9.53;6.00;;;;;;;5.54;32.91;97079.84;1815694;78;21097;-75
2021/03/10 10:30:38;;;;;;;10.08;3.72;;;;;;;5.34;32.75;97081.02;1817498;78;21157;-76
2021/03/10 10:33:08;;;;;;;5.83;3.45;;;;;;;5.26;32.25;97091.95;1828759;78;21440;-73
2021/03/10 10:35:38;;;;;;;9.00;4.20;;;;;;;4.93;32.23;97091.20;1807922;79;21525;-74
2021/03/10 10:38:08;;;;;;;8.30;4.80;;;;;;;4.64;32.53;97093.70;1823736;78;21561;-75
2021/03/10 10:40:37;;;;;;;6.10;3.95;;;;;;;4.51;33.14;97084.86;1828147;78;21164;-77
2021/03/10 10:43:08;;;;;;;6.55;3.90;;;;;;;4.65;33.09;97086.70;1844323;77;21571;-76
2021/03/10 10:45:36;;;;;;;9.40;5.70;;;;;;;4.50;32.68;97070.98;1842883;77;21289;-76
2021/03/10 10:48:06;;;;;;;12.10;5.33;;;;;;;4.69;33.08;97084.30;1829012;77;21149;-75
2021/03/10 10:50:57;;;;;;;12.55;5.72;;;;;;;4.84;33.18;97073.45;1815024;79;24528;-77
2021/03/10 10:53:27;;;;;;;10.20;5.97;;;;;;;5.02;33.46;97078.54;1776472;80;21140;-75
2021/03/10 10:55:55;;;;;;;6.22;3.05;;;;;;;5.28;33.30;97085.69;1767769;80;21170;-74
2021/03/10 10:58:23;;;;;;;11.60;6.05;;;;;;;5.38;32.28;97079.44;1766921;80;21645;-77
2021/03/10 11:00:51;;;;;;;9.75;5.53;;;;;;;5.44;33.17;97073.00;1767289;80;21282;-76
2021/03/10 11:03:20;;;;;;;8.55;5.62;;;;;;;5.62;33.40;97067.14;1793786;80;21680;-78
2021/03/10 11:05:51;;;;;;;8.38;4.67;;;;;;;5.74;33.36;97065.55;1765819;80;21172;-74
2021/03/10 11:08:20;;;;;;;12.03;5.90;;;;;;;5.77;32.58;97064.06;1772826;80;21135;-76
2021/03/10 11:10:49;;;;;;;12.45;5.85;;;;;;;5.62;32.81;97058.81;1793865;80;21191;-77
2021/03/10 11:13:19;;;;;;;15.75;5.90;;;;;;;5.73;33.41;97059.49;1775281;80;21120;-77
2021/03/10 11:15:49;;;;;;;11.15;5.37;;;;;;;5.92;33.23;97052.64;1762141;80;21159;-78
2021/03/10 11:18:24;;;;;;;15.77;6.20;;;;;;;6.43;33.31;97042.10;1760648;81;21202;-74
2021/03/10 11:20:54;;;;;;;9.28;5.78;;;;;;;6.43;33.31;97042.10;1762726;81;21582;-75
2021/03/10 11:23:23;;;;;;;17.85;5.40;;;;;;;6.68;33.29;97049.19;1762718;81;21147;-76
2021/03/10 11:25:51;;;;;;;8.73;5.47;;;;;;;6.88;32.62;97040.03;1762568;81;21536;-76
2021/03/10 11:28:21;;;;;;;8.85;6.00;;;;;;;6.94;31.67;97034.86;1762545;81;21583;-77
2021/03/10 11:30:50;;;;;;;10.35;5.22;;;;;;;7.03;32.37;97033.39;1762881;81;21277;-75
2021/03/10 11:33:20;;;;;;;10.25;5.75;;;;;;;7.03;32.37;97033.39;1763017;81;21120;-77
2021/03/10 11:35:48;;;;;;;13.18;4.85;;;;;;;7.00;32.31;97036.23;1763053;81;21285;-75
2021/03/10 11:38:17;;;;;;;13.10;5.10;;;;;;;7.04;32.43;97035.07;1733108;81;21146;-77
2021/03/10 11:40:48;;;;;;;10.72;4.67;;;;;;;7.12;32.31;97021.46;1762825;81;21154;-76
2021/03/10 11:43:16;;;;;;;7.83;4.28;;;;;;;7.09;31.82;97028.21;1762885;81;21171;-78
2021/03/10 11:45:45;;;;;;;10.58;6.15;;;;;;;6.90;30.27;97035.99;1791711;80;21322;-76
2021/03/10 11:48:13;;;;;;;8.60;5.62;;;;;;;6.75;30.06;97027.36;1789801;80;21144;-78
2021/03/10 11:50:43;;;;;;;9.30;5.37;;;;;;;6.64;31.14;97028.53;1750489;81;21157;-77
2021/03/10 11:53:12;;;;;;;10.00;5.22;;;;;;;6.70;31.53;97013.74;1747694;82;21149;-77
2021/03/10 11:55:40;;;;;;;10.45;5.55;;;;;;;6.61;30.47;97016.97;1727947;82;21150;-77
2021/03/10 11:58:08;;;;;;;8.48;5.83;;;;;;;6.44;31.23;97013.67;1747979;82;21171;-77
2021/03/10 12:00:41;;;;;;;10.25;6.10;;;;;;;6.50;31.46;97013.27;1747298;82;21295;-76
2021/03/10 12:03:11;;;;;;;10.18;5.55;;;;;;;6.55;31.66;97011.66;1746650;82;21164;-76